sensor_id;sensor_type;location;lat;lon;timestamp;P1;durP1;ratioP1;P2;durP2;ratioP2
72053;SDS011;59918;51.280;7.950;2023-07-13T00:01:20;8.23;;;2.72;;
72053;SDS011;59918;51.280;7.950;2023-07-13T00:03:48;6.35;;;3.00;;
72053;SDS011;59918;51.280;7.950;2023-07-13T00:06:14;2.75;;;2.47;;
72053;SDS011;59918;51.280;7.950;2023-07-13T00:08:39;3.55;;;2.17;;
72053;SDS011;59918;51.280;7.950;2023-07-13T00:11:04;4.50;;;2.17;;
72053;SDS011;59918;51.280;7.950;2023-07-13T00:13:30;6.68;;;2.33;;
72053;SDS011;59918;51.280;7.950;2023-07-13T00:15:56;4.47;;;1.80;;
72053;SDS011;59918;51.280;7.950;2023-07-13T00:18:25;5.13;;;2.40;;
72053;SDS011;59918;51.280;7.950;2023-07-13T00:20:50;4.85;;;2.13;;
72053;SDS011;59918;51.280;7.950;2023-07-13T00:23:16;8.45;;;2.10;;
72053;SDS011;59918;51.280;7.950;2023-07-13T00:25:41;2.88;;;2.30;;
72053;SDS011;59918;51.280;7.950;2023-07-13T00:28:06;4.78;;;1.88;;
72053;SDS011;59918;51.280;7.950;2023-07-13T00:30:31;2.95;;;2.03;;
72053;SDS011;59918;51.280;7.950;2023-07-13T00:32:57;4.85;;;1.65;;
72053;SDS011;59918;51.280;7.950;2023-07-13T00:35:25;5.25;;;2.30;;
72053;SDS011;59918;51.280;7.950;2023-07-13T00:37:50;3.65;;;2.05;;
72053;SDS011;59918;51.280;7.950;2023-07-13T00:40:16;3.17;;;1.60;;
72053;SDS011;59918;51.280;7.950;2023-07-13T00:42:42;5.35;;;2.00;;
72053;SDS011;59918;51.280;7.950;2023-07-13T00:47:32;5.35;;;2.13;;
72053;SDS011;59918;51.280;7.950;2023-07-13T00:50:09;1.95;;;1.50;;
72053;SDS011;59918;51.280;7.950;2023-07-13T00:52:40;3.40;;;2.05;;
72053;SDS011;59918;51.280;7.950;2023-07-13T00:55:08;4.47;;;1.90;;
72053;SDS011;59918;51.280;7.950;2023-07-13T00:57:38;6.38;;;2.20;;
72053;SDS011;59918;51.280;7.950;2023-07-13T01:00:04;3.78;;;1.88;;
72053;SDS011;59918;51.280;7.950;2023-07-13T01:02:31;4.95;;;1.77;;
72053;SDS011;59918;51.280;7.950;2023-07-13T01:04:56;3.22;;;1.90;;
72053;SDS011;59918;51.280;7.950;2023-07-13T01:07:21;5.20;;;1.48;;
72053;SDS011;59918;51.280;7.950;2023-07-13T01:09:50;6.03;;;1.77;;
72053;SDS011;59918;51.280;7.950;2023-07-13T01:12:16;4.65;;;1.90;;
72053;SDS011;59918;51.280;7.950;2023-07-13T01:14:41;4.22;;;1.85;;
72053;SDS011;59918;51.280;7.950;2023-07-13T01:17:08;7.80;;;2.22;;
72053;SDS011;59918;51.280;7.950;2023-07-13T01:19:39;3.90;;;1.65;;
72053;SDS011;59918;51.280;7.950;2023-07-13T01:22:08;6.55;;;1.90;;
72053;SDS011;59918;51.280;7.950;2023-07-13T01:24:39;6.93;;;1.80;;
72053;SDS011;59918;51.280;7.950;2023-07-13T01:27:07;5.00;;;2.20;;
72053;SDS011;59918;51.280;7.950;2023-07-13T01:29:34;5.15;;;1.80;;
72053;SDS011;59918;51.280;7.950;2023-07-13T01:32:04;5.13;;;1.80;;
72053;SDS011;59918;51.280;7.950;2023-07-13T01:34:30;7.13;;;1.67;;
72053;SDS011;59918;51.280;7.950;2023-07-13T01:36:55;2.17;;;1.67;;
72053;SDS011;59918;51.280;7.950;2023-07-13T01:39:21;4.03;;;1.60;;
72053;SDS011;59918;51.280;7.950;2023-07-13T01:41:46;7.53;;;2.60;;
72053;SDS011;59918;51.280;7.950;2023-07-13T01:44:15;5.60;;;1.90;;
72053;SDS011;59918;51.280;7.950;2023-07-13T01:46:40;3.13;;;1.63;;
72053;SDS011;59918;51.280;7.950;2023-07-13T01:49:05;6.75;;;2.03;;
72053;SDS011;59918;51.280;7.950;2023-07-13T01:51:30;4.40;;;1.92;;
72053;SDS011;59918;51.280;7.950;2023-07-13T01:53:56;7.90;;;2.30;;
72053;SDS011;59918;51.280;7.950;2023-07-13T01:56:21;8.50;;;2.28;;
72053;SDS011;59918;51.280;7.950;2023-07-13T01:58:47;7.15;;;1.98;;
72053;SDS011;59918;51.280;7.950;2023-07-13T02:01:15;6.35;;;1.65;;
72053;SDS011;59918;51.280;7.950;2023-07-13T02:03:40;4.68;;;1.73;;
72053;SDS011;59918;51.280;7.950;2023-07-13T02:06:05;6.78;;;1.70;;
72053;SDS011;59918;51.280;7.950;2023-07-13T02:08:32;5.32;;;1.60;;
72053;SDS011;59918;51.280;7.950;2023-07-13T02:10:57;7.43;;;1.88;;
72053;SDS011;59918;51.280;7.950;2023-07-13T02:13:23;3.50;;;1.73;;
72053;SDS011;59918;51.280;7.950;2023-07-13T02:15:51;5.20;;;1.70;;
72053;SDS011;59918;51.280;7.950;2023-07-13T02:18:19;6.65;;;2.28;;
72053;SDS011;59918;51.280;7.950;2023-07-13T02:20:45;4.03;;;1.85;;
72053;SDS011;59918;51.280;7.950;2023-07-13T02:23:10;5.15;;;1.88;;
72053;SDS011;59918;51.280;7.950;2023-07-13T02:25:39;5.45;;;1.85;;
72053;SDS011;59918;51.280;7.950;2023-07-13T02:28:04;4.53;;;1.60;;
72053;SDS011;59918;51.280;7.950;2023-07-13T02:30:30;6.35;;;1.70;;
72053;SDS011;59918;51.280;7.950;2023-07-13T02:32:56;6.03;;;1.90;;
72053;SDS011;59918;51.280;7.950;2023-07-13T02:35:22;5.80;;;1.63;;
72053;SDS011;59918;51.280;7.950;2023-07-13T02:37:47;5.50;;;1.85;;
72053;SDS011;59918;51.280;7.950;2023-07-13T02:40:15;4.55;;;1.63;;
72053;SDS011;59918;51.280;7.950;2023-07-13T02:42:41;2.95;;;1.80;;
72053;SDS011;59918;51.280;7.950;2023-07-13T02:45:06;5.70;;;1.45;;
72053;SDS011;59918;51.280;7.950;2023-07-13T02:47:33;6.10;;;1.60;;
72053;SDS011;59918;51.280;7.950;2023-07-13T02:49:58;7.70;;;1.85;;
72053;SDS011;59918;51.280;7.950;2023-07-13T02:52:24;9.10;;;1.80;;
72053;SDS011;59918;51.280;7.950;2023-07-13T02:54:55;10.27;;;1.70;;
72053;SDS011;59918;51.280;7.950;2023-07-13T02:57:20;6.40;;;1.45;;
72053;SDS011;59918;51.280;7.950;2023-07-13T02:59:45;7.00;;;1.40;;
72053;SDS011;59918;51.280;7.950;2023-07-13T03:02:10;6.60;;;1.42;;
72053;SDS011;59918;51.280;7.950;2023-07-13T03:04:36;7.78;;;1.50;;
72053;SDS011;59918;51.280;7.950;2023-07-13T03:07:07;4.40;;;1.45;;
72053;SDS011;59918;51.280;7.950;2023-07-13T03:09:33;3.85;;;1.55;;
72053;SDS011;59918;51.280;7.950;2023-07-13T03:11:59;4.40;;;1.50;;
72053;SDS011;59918;51.280;7.950;2023-07-13T03:14:27;5.03;;;1.50;;
72053;SDS011;59918;51.280;7.950;2023-07-13T03:16:53;7.63;;;1.50;;
72053;SDS011;59918;51.280;7.950;2023-07-13T03:19:18;4.85;;;1.58;;
72053;SDS011;59918;51.280;7.950;2023-07-13T03:21:44;6.03;;;1.70;;
72053;SDS011;59918;51.280;7.950;2023-07-13T03:24:09;9.27;;;2.05;;
72053;SDS011;59918;51.280;7.950;2023-07-13T03:26:35;5.78;;;1.52;;
72053;SDS011;59918;51.280;7.950;2023-07-13T03:29:03;5.00;;;1.55;;
72053;SDS011;59918;51.280;7.950;2023-07-13T03:31:29;5.53;;;1.70;;
72053;SDS011;59918;51.280;7.950;2023-07-13T03:33:57;3.58;;;1.55;;
72053;SDS011;59918;51.280;7.950;2023-07-13T03:36:24;6.05;;;1.65;;
72053;SDS011;59918;51.280;7.950;2023-07-13T03:38:55;4.63;;;1.63;;
72053;SDS011;59918;51.280;7.950;2023-07-13T03:41:23;4.57;;;1.95;;
72053;SDS011;59918;51.280;7.950;2023-07-13T03:43:52;3.00;;;1.80;;
72053;SDS011;59918;51.280;7.950;2023-07-13T03:46:17;4.00;;;1.40;;
72053;SDS011;59918;51.280;7.950;2023-07-13T03:48:46;8.68;;;1.77;;
72053;SDS011;59918;51.280;7.950;2023-07-13T03:51:13;4.60;;;1.40;;
72053;SDS011;59918;51.280;7.950;2023-07-13T03:53:43;7.40;;;1.63;;
72053;SDS011;59918;51.280;7.950;2023-07-13T03:56:09;5.30;;;1.65;;
72053;SDS011;59918;51.280;7.950;2023-07-13T03:58:36;3.75;;;1.38;;
72053;SDS011;59918;51.280;7.950;2023-07-13T04:01:06;4.03;;;1.55;;
72053;SDS011;59918;51.280;7.950;2023-07-13T04:03:34;3.88;;;1.35;;
72053;SDS011;59918;51.280;7.950;2023-07-13T04:06:00;5.03;;;1.50;;
72053;SDS011;59918;51.280;7.950;2023-07-13T04:08:40;5.57;;;1.55;;
72053;SDS011;59918;51.280;7.950;2023-07-13T04:11:06;2.85;;;1.30;;
72053;SDS011;59918;51.280;7.950;2023-07-13T04:13:31;3.80;;;1.33;;
72053;SDS011;59918;51.280;7.950;2023-07-13T04:15:56;5.10;;;1.80;;
72053;SDS011;59918;51.280;7.950;2023-07-13T04:18:22;5.10;;;2.03;;
72053;SDS011;59918;51.280;7.950;2023-07-13T04:20:47;6.63;;;1.58;;
72053;SDS011;59918;51.280;7.950;2023-07-13T04:23:19;3.45;;;1.40;;
72053;SDS011;59918;51.280;7.950;2023-07-13T04:25:45;7.05;;;1.50;;
72053;SDS011;59918;51.280;7.950;2023-07-13T04:28:11;5.97;;;1.40;;
72053;SDS011;59918;51.280;7.950;2023-07-13T04:30:39;4.90;;;2.08;;
72053;SDS011;59918;51.280;7.950;2023-07-13T04:33:05;12.50;;;1.38;;
72053;SDS011;59918;51.280;7.950;2023-07-13T04:35:30;6.45;;;1.70;;
72053;SDS011;59918;51.280;7.950;2023-07-13T04:37:55;3.83;;;1.52;;
72053;SDS011;59918;51.280;7.950;2023-07-13T04:40:20;4.13;;;1.55;;
72053;SDS011;59918;51.280;7.950;2023-07-13T04:42:46;4.68;;;1.60;;
72053;SDS011;59918;51.280;7.950;2023-07-13T04:45:12;5.85;;;1.73;;
72053;SDS011;59918;51.280;7.950;2023-07-13T04:47:43;5.60;;;1.60;;
72053;SDS011;59918;51.280;7.950;2023-07-13T04:50:09;3.35;;;1.52;;
72053;SDS011;59918;51.280;7.950;2023-07-13T04:52:34;7.03;;;1.55;;
72053;SDS011;59918;51.280;7.950;2023-07-13T04:54:59;2.65;;;1.10;;
72053;SDS011;59918;51.280;7.950;2023-07-13T04:57:28;4.80;;;1.88;;
72053;SDS011;59918;51.280;7.950;2023-07-13T04:59:53;10.23;;;1.70;;
72053;SDS011;59918;51.280;7.950;2023-07-13T05:02:20;3.22;;;1.45;;
72053;SDS011;59918;51.280;7.950;2023-07-13T05:04:55;4.22;;;1.25;;
72053;SDS011;59918;51.280;7.950;2023-07-13T05:07:21;5.90;;;1.55;;
72053;SDS011;59918;51.280;7.950;2023-07-13T05:09:46;7.13;;;1.90;;
72053;SDS011;59918;51.280;7.950;2023-07-13T05:12:11;4.28;;;2.20;;
72053;SDS011;59918;51.280;7.950;2023-07-13T05:14:40;3.55;;;1.40;;
72053;SDS011;59918;51.280;7.950;2023-07-13T05:17:05;4.53;;;1.50;;
72053;SDS011;59918;51.280;7.950;2023-07-13T05:19:30;7.28;;;1.77;;
72053;SDS011;59918;51.280;7.950;2023-07-13T05:21:56;3.63;;;1.48;;
72053;SDS011;59918;51.280;7.950;2023-07-13T05:24:21;3.65;;;1.55;;
72053;SDS011;59918;51.280;7.950;2023-07-13T05:26:46;2.97;;;1.30;;
72053;SDS011;59918;51.280;7.950;2023-07-13T05:29:12;6.47;;;1.70;;
72053;SDS011;59918;51.280;7.950;2023-07-13T05:31:40;4.43;;;1.45;;
72053;SDS011;59918;51.280;7.950;2023-07-13T05:34:05;4.57;;;1.60;;
72053;SDS011;59918;51.280;7.950;2023-07-13T05:36:30;2.97;;;1.58;;
72053;SDS011;59918;51.280;7.950;2023-07-13T05:38:56;3.33;;;1.70;;
72053;SDS011;59918;51.280;7.950;2023-07-13T05:41:21;5.65;;;1.50;;
72053;SDS011;59918;51.280;7.950;2023-07-13T05:43:46;5.70;;;1.58;;
72053;SDS011;59918;51.280;7.950;2023-07-13T05:46:11;5.82;;;1.42;;
72053;SDS011;59918;51.280;7.950;2023-07-13T05:48:43;5.05;;;1.42;;
72053;SDS011;59918;51.280;7.950;2023-07-13T05:51:08;4.82;;;1.67;;
72053;SDS011;59918;51.280;7.950;2023-07-13T05:53:34;3.13;;;1.40;;
72053;SDS011;59918;51.280;7.950;2023-07-13T05:55:59;7.50;;;1.63;;
72053;SDS011;59918;51.280;7.950;2023-07-13T05:58:30;5.20;;;1.80;;
72053;SDS011;59918;51.280;7.950;2023-07-13T06:03:44;4.05;;;1.20;;
72053;SDS011;59918;51.280;7.950;2023-07-13T06:06:10;8.98;;;1.80;;
72053;SDS011;59918;51.280;7.950;2023-07-13T06:08:36;3.40;;;1.48;;
72053;SDS011;59918;51.280;7.950;2023-07-13T06:11:12;7.55;;;1.83;;
72053;SDS011;59918;51.280;7.950;2023-07-13T06:13:40;4.25;;;1.45;;
72053;SDS011;59918;51.280;7.950;2023-07-13T06:16:06;3.00;;;1.27;;
72053;SDS011;59918;51.280;7.950;2023-07-13T06:18:32;6.20;;;1.63;;
72053;SDS011;59918;51.280;7.950;2023-07-13T06:20:58;6.10;;;2.03;;
72053;SDS011;59918;51.280;7.950;2023-07-13T06:23:24;4.20;;;1.40;;
72053;SDS011;59918;51.280;7.950;2023-07-13T06:25:53;9.35;;;1.75;;
72053;SDS011;59918;51.280;7.950;2023-07-13T06:28:18;6.57;;;1.90;;
72053;SDS011;59918;51.280;7.950;2023-07-13T06:30:43;5.10;;;1.67;;
72053;SDS011;59918;51.280;7.950;2023-07-13T06:33:08;3.85;;;1.52;;
72053;SDS011;59918;51.280;7.950;2023-07-13T06:35:34;2.92;;;1.55;;
72053;SDS011;59918;51.280;7.950;2023-07-13T06:37:59;4.45;;;1.77;;
72053;SDS011;59918;51.280;7.950;2023-07-13T06:40:25;9.35;;;1.80;;
72053;SDS011;59918;51.280;7.950;2023-07-13T06:42:53;9.55;;;1.52;;
72053;SDS011;59918;51.280;7.950;2023-07-13T06:45:18;7.05;;;1.40;;
72053;SDS011;59918;51.280;7.950;2023-07-13T06:47:43;4.07;;;1.50;;
72053;SDS011;59918;51.280;7.950;2023-07-13T06:50:09;6.53;;;1.70;;
72053;SDS011;59918;51.280;7.950;2023-07-13T06:52:34;6.22;;;1.90;;
72053;SDS011;59918;51.280;7.950;2023-07-13T06:55:00;4.20;;;1.73;;
72053;SDS011;59918;51.280;7.950;2023-07-13T06:57:31;4.85;;;2.60;;
72053;SDS011;59918;51.280;7.950;2023-07-13T06:59:59;5.47;;;2.10;;
72053;SDS011;59918;51.280;7.950;2023-07-13T07:02:24;5.32;;;2.63;;
72053;SDS011;59918;51.280;7.950;2023-07-13T07:04:53;5.60;;;1.95;;
72053;SDS011;59918;51.280;7.950;2023-07-13T07:07:19;3.97;;;2.30;;
72053;SDS011;59918;51.280;7.950;2023-07-13T07:09:44;7.40;;;2.85;;
72053;SDS011;59918;51.280;7.950;2023-07-13T07:12:09;5.07;;;2.55;;
72053;SDS011;59918;51.280;7.950;2023-07-13T07:14:34;6.10;;;2.53;;
72053;SDS011;59918;51.280;7.950;2023-07-13T07:17:00;4.82;;;2.63;;
72053;SDS011;59918;51.280;7.950;2023-07-13T07:19:31;3.58;;;2.22;;
72053;SDS011;59918;51.280;7.950;2023-07-13T07:21:57;7.05;;;3.22;;
72053;SDS011;59918;51.280;7.950;2023-07-13T07:24:22;5.80;;;2.70;;
72053;SDS011;59918;51.280;7.950;2023-07-13T07:26:47;4.85;;;3.10;;
72053;SDS011;59918;51.280;7.950;2023-07-13T07:29:12;4.70;;;2.80;;
72053;SDS011;59918;51.280;7.950;2023-07-13T07:31:43;6.10;;;3.17;;
72053;SDS011;59918;51.280;7.950;2023-07-13T07:34:09;7.90;;;3.08;;
72053;SDS011;59918;51.280;7.950;2023-07-13T07:36:34;5.82;;;2.70;;
72053;SDS011;59918;51.280;7.950;2023-07-13T07:38:59;6.93;;;2.95;;
72053;SDS011;59918;51.280;7.950;2023-07-13T07:41:24;6.20;;;2.95;;
72053;SDS011;59918;51.280;7.950;2023-07-13T07:43:55;4.97;;;3.00;;
72053;SDS011;59918;51.280;7.950;2023-07-13T07:46:21;5.72;;;2.90;;
72053;SDS011;59918;51.280;7.950;2023-07-13T07:48:46;6.28;;;2.70;;
72053;SDS011;59918;51.280;7.950;2023-07-13T07:51:18;9.02;;;2.60;;
72053;SDS011;59918;51.280;7.950;2023-07-13T07:53:44;7.80;;;3.10;;
72053;SDS011;59918;51.280;7.950;2023-07-13T07:56:09;6.50;;;2.92;;
72053;SDS011;59918;51.280;7.950;2023-07-13T07:58:34;11.07;;;3.15;;
72053;SDS011;59918;51.280;7.950;2023-07-13T08:01:05;7.13;;;3.70;;
72053;SDS011;59918;51.280;7.950;2023-07-13T08:03:31;8.63;;;3.40;;
72053;SDS011;59918;51.280;7.950;2023-07-13T08:05:57;6.13;;;3.63;;
72053;SDS011;59918;51.280;7.950;2023-07-13T08:08:22;6.85;;;3.55;;
72053;SDS011;59918;51.280;7.950;2023-07-13T08:10:48;6.80;;;3.17;;
72053;SDS011;59918;51.280;7.950;2023-07-13T08:13:13;5.18;;;3.60;;
72053;SDS011;59918;51.280;7.950;2023-07-13T08:15:42;5.95;;;2.88;;
72053;SDS011;59918;51.280;7.950;2023-07-13T08:18:07;9.18;;;3.45;;
72053;SDS011;59918;51.280;7.950;2023-07-13T08:20:32;5.35;;;2.80;;
72053;SDS011;59918;51.280;7.950;2023-07-13T08:22:57;4.80;;;2.50;;
72053;SDS011;59918;51.280;7.950;2023-07-13T08:25:23;7.18;;;2.85;;
72053;SDS011;59918;51.280;7.950;2023-07-13T08:27:54;2.78;;;2.20;;
72053;SDS011;59918;51.280;7.950;2023-07-13T08:30:19;4.85;;;2.08;;
72053;SDS011;59918;51.280;7.950;2023-07-13T08:32:45;4.63;;;2.22;;
72053;SDS011;59918;51.280;7.950;2023-07-13T08:35:10;3.63;;;2.10;;
72053;SDS011;59918;51.280;7.950;2023-07-13T08:37:35;5.80;;;2.65;;
72053;SDS011;59918;51.280;7.950;2023-07-13T08:40:00;4.53;;;1.98;;
72053;SDS011;59918;51.280;7.950;2023-07-13T08:45:20;3.67;;;1.92;;
72053;SDS011;59918;51.280;7.950;2023-07-13T08:48:10;7.80;;;1.75;;
72053;SDS011;59918;51.280;7.950;2023-07-13T08:53:49;3.22;;;2.17;;
72053;SDS011;59918;51.280;7.950;2023-07-13T08:56:19;3.22;;;1.50;;
72053;SDS011;59918;51.280;7.950;2023-07-13T08:58:50;3.97;;;2.25;;
72053;SDS011;59918;51.280;7.950;2023-07-13T09:01:53;5.20;;;1.70;;
72053;SDS011;59918;51.280;7.950;2023-07-13T09:04:35;5.00;;;1.63;;
72053;SDS011;59918;51.280;7.950;2023-07-13T09:07:23;6.85;;;1.65;;
72053;SDS011;59918;51.280;7.950;2023-07-13T09:12:58;4.53;;;2.05;;
72053;SDS011;59918;51.280;7.950;2023-07-13T09:15:47;4.05;;;1.90;;
72053;SDS011;59918;51.280;7.950;2023-07-13T09:20:49;6.82;;;2.13;;
72053;SDS011;59918;51.280;7.950;2023-07-13T09:23:21;2.80;;;1.65;;
72053;SDS011;59918;51.280;7.950;2023-07-13T09:25:48;4.90;;;2.45;;
72053;SDS011;59918;51.280;7.950;2023-07-13T09:28:20;4.32;;;1.73;;
72053;SDS011;59918;51.280;7.950;2023-07-13T09:31:00;5.90;;;1.75;;
72053;SDS011;59918;51.280;7.950;2023-07-13T09:33:32;5.00;;;1.55;;
72053;SDS011;59918;51.280;7.950;2023-07-13T09:35:57;2.85;;;1.42;;
72053;SDS011;59918;51.280;7.950;2023-07-13T09:38:23;4.35;;;2.15;;
72053;SDS011;59918;51.280;7.950;2023-07-13T09:43:34;2.95;;;1.40;;
72053;SDS011;59918;51.280;7.950;2023-07-13T09:45:59;3.85;;;1.30;;
72053;SDS011;59918;51.280;7.950;2023-07-13T09:48:25;4.93;;;1.55;;
72053;SDS011;59918;51.280;7.950;2023-07-13T09:50:51;3.85;;;1.55;;
72053;SDS011;59918;51.280;7.950;2023-07-13T09:53:32;3.28;;;1.50;;
72053;SDS011;59918;51.280;7.950;2023-07-13T09:55:57;4.43;;;1.50;;
72053;SDS011;59918;51.280;7.950;2023-07-13T09:58:24;5.95;;;1.80;;
72053;SDS011;59918;51.280;7.950;2023-07-13T10:01:03;4.40;;;1.70;;
72053;SDS011;59918;51.280;7.950;2023-07-13T10:03:35;4.07;;;1.58;;
72053;SDS011;59918;51.280;7.950;2023-07-13T10:06:06;5.25;;;1.52;;
72053;SDS011;59918;51.280;7.950;2023-07-13T10:08:37;3.72;;;1.33;;
72053;SDS011;59918;51.280;7.950;2023-07-13T10:16:27;4.55;;;1.83;;
72053;SDS011;59918;51.280;7.950;2023-07-13T10:19:02;3.67;;;1.30;;
72053;SDS011;59918;51.280;7.950;2023-07-13T10:21:39;2.97;;;2.03;;
72053;SDS011;59918;51.280;7.950;2023-07-13T10:24:22;5.63;;;1.85;;
72053;SDS011;59918;51.280;7.950;2023-07-13T10:26:52;3.50;;;1.50;;
72053;SDS011;59918;51.280;7.950;2023-07-13T10:29:53;2.78;;;1.40;;
72053;SDS011;59918;51.280;7.950;2023-07-13T10:33:00;3.22;;;1.40;;
72053;SDS011;59918;51.280;7.950;2023-07-13T10:35:27;4.00;;;1.20;;
72053;SDS011;59918;51.280;7.950;2023-07-13T10:37:58;3.70;;;1.60;;
72053;SDS011;59918;51.280;7.950;2023-07-13T10:40:47;6.00;;;1.50;;
72053;SDS011;59918;51.280;7.950;2023-07-13T10:46:13;2.58;;;1.80;;
72053;SDS011;59918;51.280;7.950;2023-07-13T10:48:47;2.35;;;2.08;;
72053;SDS011;59918;51.280;7.950;2023-07-13T10:51:16;5.22;;;2.40;;
72053;SDS011;59918;51.280;7.950;2023-07-13T10:53:46;1.88;;;1.65;;
72053;SDS011;59918;51.280;7.950;2023-07-13T11:01:40;2.38;;;2.15;;
72053;SDS011;59918;51.280;7.950;2023-07-13T11:04:20;5.60;;;2.20;;
72053;SDS011;59918;51.280;7.950;2023-07-13T11:07:31;4.28;;;2.00;;
72053;SDS011;59918;51.280;7.950;2023-07-13T11:12:56;3.22;;;1.98;;
72053;SDS011;59918;51.280;7.950;2023-07-13T11:18:23;4.07;;;2.63;;
72053;SDS011;59918;51.280;7.950;2023-07-13T11:20:49;2.35;;;2.00;;
72053;SDS011;59918;51.280;7.950;2023-07-13T11:25:43;3.53;;;1.53;;
72053;SDS011;59918;51.280;7.950;2023-07-13T11:30:36;1.60;;;1.20;;
72053;SDS011;59918;51.280;7.950;2023-07-13T11:35:59;2.63;;;1.50;;
72053;SDS011;59918;51.280;7.950;2023-07-13T11:38:28;3.13;;;1.58;;
72053;SDS011;59918;51.280;7.950;2023-07-13T11:41:28;4.65;;;1.70;;
72053;SDS011;59918;51.280;7.950;2023-07-13T11:44:13;4.65;;;1.80;;
72053;SDS011;59918;51.280;7.950;2023-07-13T11:46:48;6.25;;;1.90;;
72053;SDS011;59918;51.280;7.950;2023-07-13T11:49:15;2.47;;;1.45;;
72053;SDS011;59918;51.280;7.950;2023-07-13T11:51:50;3.40;;;1.48;;
72053;SDS011;59918;51.280;7.950;2023-07-13T11:54:23;3.53;;;1.65;;
72053;SDS011;59918;51.280;7.950;2023-07-13T11:56:49;1.60;;;1.50;;
72053;SDS011;59918;51.280;7.950;2023-07-13T11:59:15;5.30;;;1.80;;
72053;SDS011;59918;51.280;7.950;2023-07-13T12:01:44;2.22;;;1.63;;
72053;SDS011;59918;51.280;7.950;2023-07-13T12:07:15;3.05;;;1.27;;
72053;SDS011;59918;51.280;7.950;2023-07-13T12:09:44;4.38;;;1.60;;
72053;SDS011;59918;51.280;7.950;2023-07-13T12:12:11;1.92;;;1.20;;
72053;SDS011;59918;51.280;7.950;2023-07-13T12:14:45;2.45;;;1.67;;
72053;SDS011;59918;51.280;7.950;2023-07-13T12:17:21;2.35;;;1.05;;
72053;SDS011;59918;51.280;7.950;2023-07-13T12:19:48;10.40;;;2.53;;
72053;SDS011;59918;51.280;7.950;2023-07-13T12:22:15;5.90;;;2.58;;
72053;SDS011;59918;51.280;7.950;2023-07-13T12:24:46;8.82;;;2.50;;
72053;SDS011;59918;51.280;7.950;2023-07-13T12:27:20;2.15;;;1.23;;
72053;SDS011;59918;51.280;7.950;2023-07-13T12:29:49;3.00;;;1.20;;
72053;SDS011;59918;51.280;7.950;2023-07-13T12:32:19;2.85;;;1.80;;
72053;SDS011;59918;51.280;7.950;2023-07-13T12:34:51;2.63;;;1.20;;
72053;SDS011;59918;51.280;7.950;2023-07-13T12:37:21;12.68;;;4.82;;
72053;SDS011;59918;51.280;7.950;2023-07-13T12:39:47;5.35;;;1.80;;
72053;SDS011;59918;51.280;7.950;2023-07-13T12:42:27;2.70;;;1.48;;
72053;SDS011;59918;51.280;7.950;2023-07-13T12:45:03;7.85;;;2.95;;
72053;SDS011;59918;51.280;7.950;2023-07-13T12:47:48;4.13;;;1.10;;
72053;SDS011;59918;51.280;7.950;2023-07-13T12:50:21;5.47;;;2.25;;
72053;SDS011;59918;51.280;7.950;2023-07-13T12:52:59;5.05;;;2.13;;
72053;SDS011;59918;51.280;7.950;2023-07-13T12:55:27;4.30;;;1.40;;
72053;SDS011;59918;51.280;7.950;2023-07-13T12:57:57;2.72;;;1.30;;
72053;SDS011;59918;51.280;7.950;2023-07-13T13:00:36;2.25;;;1.33;;
72053;SDS011;59918;51.280;7.950;2023-07-13T13:03:15;5.20;;;1.40;;
72053;SDS011;59918;51.280;7.950;2023-07-13T13:08:52;1.77;;;0.93;;
72053;SDS011;59918;51.280;7.950;2023-07-13T13:11:22;2.58;;;1.15;;
72053;SDS011;59918;51.280;7.950;2023-07-13T13:13:48;1.13;;;0.80;;
72053;SDS011;59918;51.280;7.950;2023-07-13T13:16:18;5.32;;;1.35;;
72053;SDS011;59918;51.280;7.950;2023-07-13T13:18:47;5.13;;;1.50;;
72053;SDS011;59918;51.280;7.950;2023-07-13T13:21:15;2.83;;;1.30;;
72053;SDS011;59918;51.280;7.950;2023-07-13T13:23:44;1.58;;;1.17;;
72053;SDS011;59918;51.280;7.950;2023-07-13T13:26:11;2.30;;;1.33;;
72053;SDS011;59918;51.280;7.950;2023-07-13T13:28:38;2.85;;;0.93;;
72053;SDS011;59918;51.280;7.950;2023-07-13T13:31:11;1.77;;;0.90;;
72053;SDS011;59918;51.280;7.950;2023-07-13T13:33:37;2.60;;;1.08;;
72053;SDS011;59918;51.280;7.950;2023-07-13T13:36:03;1.80;;;1.10;;
72053;SDS011;59918;51.280;7.950;2023-07-13T13:38:34;3.38;;;1.40;;
72053;SDS011;59918;51.280;7.950;2023-07-13T13:40:59;2.28;;;1.08;;
72053;SDS011;59918;51.280;7.950;2023-07-13T13:43:25;3.07;;;0.83;;
72053;SDS011;59918;51.280;7.950;2023-07-13T13:45:52;3.83;;;1.08;;
72053;SDS011;59918;51.280;7.950;2023-07-13T13:48:29;1.27;;;1.00;;
72053;SDS011;59918;51.280;7.950;2023-07-13T13:50:59;2.58;;;1.35;;
72053;SDS011;59918;51.280;7.950;2023-07-13T13:53:25;1.92;;;1.00;;
72053;SDS011;59918;51.280;7.950;2023-07-13T13:55:51;3.80;;;1.10;;
72053;SDS011;59918;51.280;7.950;2023-07-13T13:58:19;2.97;;;1.30;;
72053;SDS011;59918;51.280;7.950;2023-07-13T14:00:48;2.63;;;2.00;;
72053;SDS011;59918;51.280;7.950;2023-07-13T14:03:22;2.42;;;1.13;;
72053;SDS011;59918;51.280;7.950;2023-07-13T14:05:47;2.58;;;1.60;;
72053;SDS011;59918;51.280;7.950;2023-07-13T14:08:14;1.52;;;1.20;;
72053;SDS011;59918;51.280;7.950;2023-07-13T14:10:51;2.55;;;1.30;;
72053;SDS011;59918;51.280;7.950;2023-07-13T14:13:28;1.80;;;1.00;;
72053;SDS011;59918;51.280;7.950;2023-07-13T14:15:59;2.70;;;1.27;;
72053;SDS011;59918;51.280;7.950;2023-07-13T14:18:24;2.03;;;1.17;;
72053;SDS011;59918;51.280;7.950;2023-07-13T14:20:49;3.30;;;0.97;;
72053;SDS011;59918;51.280;7.950;2023-07-13T14:23:15;3.40;;;1.20;;
72053;SDS011;59918;51.280;7.950;2023-07-13T14:25:44;3.78;;;1.58;;
72053;SDS011;59918;51.280;7.950;2023-07-13T14:28:22;3.88;;;1.58;;
72053;SDS011;59918;51.280;7.950;2023-07-13T14:30:50;2.40;;;1.23;;
72053;SDS011;59918;51.280;7.950;2023-07-13T14:33:15;2.10;;;1.10;;
72053;SDS011;59918;51.280;7.950;2023-07-13T14:35:44;1.43;;;1.03;;
72053;SDS011;59918;51.280;7.950;2023-07-13T14:38:13;2.22;;;0.90;;
72053;SDS011;59918;51.280;7.950;2023-07-13T14:40:44;2.50;;;1.48;;
72053;SDS011;59918;51.280;7.950;2023-07-13T14:43:15;2.30;;;1.00;;
72053;SDS011;59918;51.280;7.950;2023-07-13T14:45:46;3.97;;;1.45;;
72053;SDS011;59918;51.280;7.950;2023-07-13T14:48:13;2.97;;;0.77;;
72053;SDS011;59918;51.280;7.950;2023-07-13T14:50:39;4.53;;;1.25;;
72053;SDS011;59918;51.280;7.950;2023-07-13T14:53:15;3.47;;;1.27;;
72053;SDS011;59918;51.280;7.950;2023-07-13T14:55:44;4.25;;;1.20;;
72053;SDS011;59918;51.280;7.950;2023-07-13T14:58:09;3.03;;;1.52;;
72053;SDS011;59918;51.280;7.950;2023-07-13T15:00:34;2.75;;;1.20;;
72053;SDS011;59918;51.280;7.950;2023-07-13T15:02:59;3.57;;;2.10;;
72053;SDS011;59918;51.280;7.950;2023-07-13T15:05:26;3.72;;;1.20;;
72053;SDS011;59918;51.280;7.950;2023-07-13T15:08:01;3.17;;;1.23;;
72053;SDS011;59918;51.280;7.950;2023-07-13T15:10:33;2.65;;;1.20;;
72053;SDS011;59918;51.280;7.950;2023-07-13T15:13:13;2.13;;;1.30;;
72053;SDS011;59918;51.280;7.950;2023-07-13T15:18:11;4.00;;;1.20;;
72053;SDS011;59918;51.280;7.950;2023-07-13T15:20:37;2.25;;;1.17;;
72053;SDS011;59918;51.280;7.950;2023-07-13T15:23:02;6.38;;;1.48;;
72053;SDS011;59918;51.280;7.950;2023-07-13T15:25:28;3.60;;;1.83;;
72053;SDS011;59918;51.280;7.950;2023-07-13T15:28:00;4.60;;;1.50;;
72053;SDS011;59918;51.280;7.950;2023-07-13T15:30:26;3.00;;;1.80;;
72053;SDS011;59918;51.280;7.950;2023-07-13T15:32:58;5.85;;;1.90;;
72053;SDS011;59918;51.280;7.950;2023-07-13T15:35:33;6.78;;;2.33;;
72053;SDS011;59918;51.280;7.950;2023-07-13T15:37:58;4.30;;;1.80;;
72053;SDS011;59918;51.280;7.950;2023-07-13T15:40:24;5.13;;;2.57;;
72053;SDS011;59918;51.280;7.950;2023-07-13T15:42:49;6.73;;;2.70;;
72053;SDS011;59918;51.280;7.950;2023-07-13T15:45:16;12.95;;;2.97;;
72053;SDS011;59918;51.280;7.950;2023-07-13T15:47:46;11.32;;;2.70;;
72053;SDS011;59918;51.280;7.950;2023-07-13T15:50:13;6.75;;;2.95;;
72053;SDS011;59918;51.280;7.950;2023-07-13T15:52:47;8.02;;;3.30;;